Time,TemperatureF,DewpointF,PressureIn,WindDirection,WindDirectionDegrees,WindSpeedMPH,WindSpeedGustMPH,Humidity,HourlyPrecipIn,Conditions,Clouds,dailyrainin,SoftwareType,DateUTC
2013-01-31 00:29:00,41.0,35.3,30.16,East,87,0.0,10.0,80,0.00,,,0.00,VWS V14.01,2013-01-31 08:29:00,
2013-01-31 00:59:00,41.3,35.6,30.16,East,86,3.0,7.0,80,0.00,,,0.00,VWS V14.01,2013-01-31 08:59:00,
2013-01-31 01:29:00,43.8,36.4,30.15,East,85,2.0,7.0,75,0.00,,,0.00,VWS V14.01,2013-01-31 09:29:00,
2013-01-31 01:59:00,49.4,33.0,30.13,NW,324,5.0,14.0,53,0.00,,,0.00,VWS V14.01,2013-01-31 09:59:00,
2013-01-31 02:29:00,54.2,31.6,30.11,East,81,19.0,26.0,42,0.00,,,0.00,VWS V14.01,2013-01-31 10:29:00,
2013-01-31 02:59:00,54.6,30.8,30.09,ENE,71,14.0,32.0,40,0.00,,,0.00,VWS V14.01,2013-01-31 10:59:00,
2013-01-31 03:29:00,54.8,31.0,30.08,East,95,14.0,31.0,40,0.00,,,0.00,VWS V14.01,2013-01-31 11:29:00,
2013-01-31 03:59:00,55.1,30.6,30.07,North,354,7.0,31.0,39,0.00,,,0.00,VWS V14.01,2013-01-31 11:59:00,
2013-01-31 04:29:00,54.9,30.4,30.09,ENE,72,13.0,30.0,39,0.00,,,0.00,VWS V14.01,2013-01-31 12:29:00,
2013-01-31 04:59:00,54.9,30.4,30.08,East,83,23.0,37.0,39,0.00,,,0.00,VWS V14.01,2013-01-31 12:59:00,
2013-01-31 05:29:00,54.8,31.0,30.08,NNE,24,9.0,33.0,40,0.00,,,0.00,VWS V14.01,2013-01-31 13:29:00,
2013-01-31 05:59:00,54.6,30.8,30.08,ENE,66,16.0,29.0,40,0.00,,,0.00,VWS V14.01,2013-01-31 13:59:00,
2013-01-31 06:29:00,54.3,31.1,30.08,ENE,70,16.0,33.0,41,0.00,,,0.00,VWS V14.01,2013-01-31 14:29:00,
2013-01-31 06:59:00,54.4,31.2,30.09,ENE,66,2.0,33.0,41,0.00,,,0.00,VWS V14.01,2013-01-31 14:59:00,
2013-01-31 07:29:00,54.6,31.4,30.10,NE,45,13.0,30.0,41,0.00,,,0.00,VWS V14.01,2013-01-31 15:29:00,
2013-01-31 07:59:00,54.7,31.5,30.10,ENE,75,25.0,29.0,41,0.00,,,0.00,VWS V14.01,2013-01-31 15:59:00,
2013-01-31 08:29:00,56.3,32.3,30.11,East,80,13.0,35.0,40,0.00,,,0.00,VWS V14.01,2013-01-31 16:29:00,
2013-01-31 08:59:00,59.0,33.5,30.12,ENE,60,14.0,30.0,38,0.00,,,0.00,VWS V14.01,2013-01-31 16:59:00,
2013-01-31 09:29:00,60.4,33.3,30.14,ENE,57,0.0,31.0,36,0.00,,,0.00,VWS V14.01,2013-01-31 17:29:00,
2013-01-31 09:59:00,61.0,33.9,30.14,ENE,77,21.0,30.0,36,0.00,,,0.00,VWS V14.01,2013-01-31 17:59:00,
2013-01-31 10:29:00,61.3,34.1,30.14,ENE,66,24.0,33.0,36,0.00,,,0.00,VWS V14.01,2013-01-31 18:29:00,
2013-01-31 10:59:00,62.8,34.0,30.12,NE,50,14.0,30.0,34,0.00,,,0.00,VWS V14.01,2013-01-31 18:59:00,
2013-01-31 11:29:00,63.5,33.9,30.11,East,91,22.0,27.0,33,0.00,,,0.00,VWS V14.01,2013-01-31 19:29:00,
2013-01-31 11:59:00,63.6,34.0,30.10,ENE,75,3.0,25.0,33,0.00,,,0.00,VWS V14.01,2013-01-31 19:59:00,
2013-01-31 12:29:00,63.8,34.2,30.08,East,90,9.0,26.0,33,0.00,,,0.00,VWS V14.01,2013-01-31 20:29:00,
2013-01-31 12:59:00,63.1,34.3,30.07,ENE,66,10.0,29.0,34,0.00,,,0.00,VWS V14.01,2013-01-31 20:59:00,
2013-01-31 13:29:00,62.3,33.6,30.07,East,81,13.0,29.0,34,0.00,,,0.00,VWS V14.01,2013-01-31 21:29:00,
2013-01-31 13:59:00,62.3,33.6,30.06,East,99,17.0,26.0,34,0.00,,,0.00,VWS V14.01,2013-01-31 21:59:00,
2013-01-31 14:29:00,63.0,32.7,30.06,ENE,64,9.0,28.0,32,0.00,,,0.00,VWS V14.01,2013-01-31 22:29:00,
2013-01-31 14:59:00,61.9,31.0,30.06,East,92,10.0,26.0,31,0.00,,,0.00,VWS V14.01,2013-01-31 22:59:00,
2013-01-31 15:29:00,62.3,32.1,30.06,ENE,73,10.0,23.0,32,0.00,,,0.00,VWS V14.01,2013-01-31 23:29:00,
2013-01-31 15:59:00,61.4,30.5,30.07,East,85,6.0,24.0,31,0.00,,,0.00,VWS V14.01,2013-01-31 23:59:00,
2013-01-31 16:29:00,59.9,30.8,30.07,East,100,7.0,21.0,33,0.00,,,0.00,VWS V14.01,2013-02-01 00:29:00,
2013-01-31 16:59:00,58.1,30.6,30.08,East,83,11.0,18.0,35,0.00,,,0.00,VWS V14.01,2013-02-01 00:59:00,
2013-01-31 17:29:00,56.7,30.1,30.08,East,87,8.0,17.0,36,0.00,,,0.00,VWS V14.01,2013-02-01 01:29:00,
2013-01-31 17:59:00,56.3,29.7,30.08,ENE,74,3.0,15.0,36,0.00,,,0.00,VWS V14.01,2013-02-01 01:59:00,
2013-01-31 18:29:00,56.3,29.0,30.07,East,90,3.0,15.0,35,0.00,,,0.00,VWS V14.01,2013-02-01 02:29:00,
2013-01-31 18:59:00,56.7,30.1,30.07,ENE,68,0.0,16.0,36,0.00,,,0.00,VWS V14.01,2013-02-01 02:59:00,
2013-01-31 19:29:00,56.8,29.5,30.07,ENE,77,0.0,15.0,35,0.00,,,0.00,VWS V14.01,2013-02-01 03:29:00,
2013-01-31 19:59:00,55.6,27.7,30.07,WSW,245,0.0,9.0,34,0.00,,,0.00,VWS V14.01,2013-02-01 03:59:00,
2013-01-31 20:29:00,55.1,27.3,30.08,ESE,110,0.0,8.0,34,0.00,,,0.00,VWS V14.01,2013-02-01 04:29:00,
2013-01-31 20:59:00,52.4,27.6,30.08,East,93,3.0,7.0,38,0.00,,,0.00,VWS V14.01,2013-02-01 04:59:00,
2013-01-31 21:29:00,52.8,27.3,30.08,East,97,0.0,9.0,37,0.00,,,0.00,VWS V14.01,2013-02-01 05:29:00,
2013-01-31 21:59:00,53.6,28.0,30.07,South,191,0.0,7.0,37,0.00,,,0.00,VWS V14.01,2013-02-01 05:59:00,
2013-01-31 22:29:00,55.8,27.9,30.06,East,86,2.0,11.0,34,0.00,,,0.00,VWS V14.01,2013-02-01 06:29:00,
2013-01-31 22:59:00,56.3,27.6,30.06,East,83,8.0,15.0,33,0.00,,,0.00,VWS V14.01,2013-02-01 06:59:00,
2013-01-31 23:29:00,56.5,27.0,30.05,East,85,8.0,15.0,32,0.00,,,0.00,VWS V14.01,2013-02-01 07:29:00,
2013-01-31 23:30:00,56.5,27.0,30.05,East,85,8.0,15.0,32,0.00,,,0.00,VWS V14.01,2013-02-01 07:30:00,